sensor_id;sensor_type;location;lat;lon;timestamp;P1;durP1;ratioP1;P2;durP2;ratioP2
56136;SDS011;42008;52.934;5.884;2023-06-26T00:00:26;13.60;;;11.80;;
56136;SDS011;42008;52.934;5.884;2023-06-26T00:02:51;15.05;;;12.05;;
56136;SDS011;42008;52.934;5.884;2023-06-26T00:05:17;13.68;;;12.23;;
56136;SDS011;42008;52.934;5.884;2023-06-26T00:07:43;12.73;;;11.53;;
56136;SDS011;42008;52.934;5.884;2023-06-26T00:10:08;13.02;;;11.63;;
56136;SDS011;42008;52.934;5.884;2023-06-26T00:12:34;13.13;;;11.70;;
56136;SDS011;42008;52.934;5.884;2023-06-26T00:14:59;15.60;;;11.45;;
56136;SDS011;42008;52.934;5.884;2023-06-26T00:17:25;13.98;;;11.73;;
56136;SDS011;42008;52.934;5.884;2023-06-26T00:19:51;13.27;;;11.10;;
56136;SDS011;42008;52.934;5.884;2023-06-26T00:22:17;13.60;;;12.20;;
56136;SDS011;42008;52.934;5.884;2023-06-26T00:24:43;12.97;;;11.63;;
56136;SDS011;42008;52.934;5.884;2023-06-26T00:27:10;14.75;;;12.73;;
56136;SDS011;42008;52.934;5.884;2023-06-26T00:29:35;14.77;;;12.13;;
56136;SDS011;42008;52.934;5.884;2023-06-26T00:32:01;12.75;;;11.45;;
56136;SDS011;42008;52.934;5.884;2023-06-26T00:34:26;17.33;;;11.05;;
56136;SDS011;42008;52.934;5.884;2023-06-26T00:36:52;13.73;;;11.80;;
56136;SDS011;42008;52.934;5.884;2023-06-26T00:39:18;13.87;;;11.87;;
56136;SDS011;42008;52.934;5.884;2023-06-26T00:41:43;13.33;;;11.77;;
56136;SDS011;42008;52.934;5.884;2023-06-26T00:44:09;14.03;;;11.50;;
56136;SDS011;42008;52.934;5.884;2023-06-26T00:46:34;16.50;;;12.00;;
56136;SDS011;42008;52.934;5.884;2023-06-26T00:49:00;12.70;;;10.07;;
56136;SDS011;42008;52.934;5.884;2023-06-26T00:51:28;12.60;;;11.32;;
56136;SDS011;42008;52.934;5.884;2023-06-26T00:53:55;13.10;;;11.67;;
56136;SDS011;42008;52.934;5.884;2023-06-26T00:56:21;14.93;;;11.87;;
56136;SDS011;42008;52.934;5.884;2023-06-26T00:58:47;14.33;;;11.57;;
56136;SDS011;42008;52.934;5.884;2023-06-26T01:01:13;16.73;;;12.47;;
56136;SDS011;42008;52.934;5.884;2023-06-26T01:03:42;15.57;;;12.17;;
56136;SDS011;42008;52.934;5.884;2023-06-26T01:06:09;18.87;;;12.30;;
56136;SDS011;42008;52.934;5.884;2023-06-26T01:08:38;14.03;;;11.10;;
56136;SDS011;42008;52.934;5.884;2023-06-26T01:11:06;12.93;;;11.50;;
56136;SDS011;42008;52.934;5.884;2023-06-26T01:13:31;14.13;;;11.70;;
56136;SDS011;42008;52.934;5.884;2023-06-26T01:15:59;13.80;;;11.60;;
56136;SDS011;42008;52.934;5.884;2023-06-26T01:18:25;13.33;;;11.93;;
56136;SDS011;42008;52.934;5.884;2023-06-26T01:20:51;15.13;;;11.47;;
56136;SDS011;42008;52.934;5.884;2023-06-26T01:23:24;12.50;;;10.67;;
56136;SDS011;42008;52.934;5.884;2023-06-26T01:28:41;13.20;;;11.73;;
56136;SDS011;42008;52.934;5.884;2023-06-26T01:31:07;18.77;;;12.50;;
56136;SDS011;42008;52.934;5.884;2023-06-26T01:33:33;16.43;;;12.13;;
56136;SDS011;42008;52.934;5.884;2023-06-26T01:36:00;12.93;;;11.13;;
56136;SDS011;42008;52.934;5.884;2023-06-26T01:38:26;13.73;;;11.00;;
56136;SDS011;42008;52.934;5.884;2023-06-26T01:40:51;12.93;;;11.40;;
56136;SDS011;42008;52.934;5.884;2023-06-26T01:46:54;14.83;;;11.73;;
56136;SDS011;42008;52.934;5.884;2023-06-26T01:51:38;12.97;;;11.57;;
56136;SDS011;42008;52.934;5.884;2023-06-26T01:54:16;17.10;;;12.03;;
56136;SDS011;42008;52.934;5.884;2023-06-26T01:56:45;13.70;;;12.17;;
56136;SDS011;42008;52.934;5.884;2023-06-26T01:59:14;16.73;;;13.07;;
56136;SDS011;42008;52.934;5.884;2023-06-26T02:01:41;15.40;;;11.90;;
56136;SDS011;42008;52.934;5.884;2023-06-26T02:04:07;15.87;;;12.80;;
56136;SDS011;42008;52.934;5.884;2023-06-26T02:06:32;15.23;;;12.53;;
56136;SDS011;42008;52.934;5.884;2023-06-26T02:08:58;15.40;;;12.90;;
56136;SDS011;42008;52.934;5.884;2023-06-26T02:11:23;15.23;;;12.43;;
56136;SDS011;42008;52.934;5.884;2023-06-26T02:13:49;14.77;;;12.67;;
56136;SDS011;42008;52.934;5.884;2023-06-26T02:16:15;14.27;;;12.77;;
56136;SDS011;42008;52.934;5.884;2023-06-26T02:18:40;15.77;;;13.37;;
56136;SDS011;42008;52.934;5.884;2023-06-26T02:21:06;14.93;;;12.70;;
56136;SDS011;42008;52.934;5.884;2023-06-26T02:23:32;13.63;;;12.03;;
56136;SDS011;42008;52.934;5.884;2023-06-26T02:25:58;13.90;;;11.97;;
56136;SDS011;42008;52.934;5.884;2023-06-26T02:28:24;11.73;;;9.80;;
56136;SDS011;42008;52.934;5.884;2023-06-26T02:30:49;11.10;;;7.70;;
56136;SDS011;42008;52.934;5.884;2023-06-26T02:33:15;9.20;;;7.10;;
56136;SDS011;42008;52.934;5.884;2023-06-26T02:35:40;11.13;;;6.90;;
56136;SDS011;42008;52.934;5.884;2023-06-26T02:38:06;9.17;;;7.30;;
56136;SDS011;42008;52.934;5.884;2023-06-26T02:40:31;9.30;;;6.77;;
56136;SDS011;42008;52.934;5.884;2023-06-26T02:42:58;11.60;;;7.23;;
56136;SDS011;42008;52.934;5.884;2023-06-26T02:45:23;10.50;;;7.07;;
56136;SDS011;42008;52.934;5.884;2023-06-26T02:47:49;9.47;;;7.13;;
56136;SDS011;42008;52.934;5.884;2023-06-26T02:50:15;11.97;;;8.00;;
56136;SDS011;42008;52.934;5.884;2023-06-26T02:52:40;10.00;;;7.20;;
56136;SDS011;42008;52.934;5.884;2023-06-26T02:55:06;10.87;;;7.23;;
56136;SDS011;42008;52.934;5.884;2023-06-26T02:57:31;14.80;;;7.73;;
56136;SDS011;42008;52.934;5.884;2023-06-26T02:59:57;13.23;;;8.07;;
56136;SDS011;42008;52.934;5.884;2023-06-26T03:02:23;11.90;;;8.10;;
56136;SDS011;42008;52.934;5.884;2023-06-26T03:04:48;11.17;;;8.03;;
56136;SDS011;42008;52.934;5.884;2023-06-26T03:07:15;14.27;;;8.43;;
56136;SDS011;42008;52.934;5.884;2023-06-26T03:09:41;13.53;;;8.47;;
56136;SDS011;42008;52.934;5.884;2023-06-26T03:12:06;11.90;;;7.83;;
56136;SDS011;42008;52.934;5.884;2023-06-26T03:14:33;12.60;;;8.10;;
56136;SDS011;42008;52.934;5.884;2023-06-26T03:16:58;15.93;;;8.70;;
56136;SDS011;42008;52.934;5.884;2023-06-26T03:19:28;13.27;;;8.37;;
56136;SDS011;42008;52.934;5.884;2023-06-26T03:21:53;13.63;;;9.50;;
56136;SDS011;42008;52.934;5.884;2023-06-26T03:24:20;14.30;;;9.23;;
56136;SDS011;42008;52.934;5.884;2023-06-26T03:26:45;16.67;;;8.40;;
56136;SDS011;42008;52.934;5.884;2023-06-26T03:29:11;14.40;;;8.90;;
56136;SDS011;42008;52.934;5.884;2023-06-26T03:31:37;24.07;;;9.53;;
56136;SDS011;42008;52.934;5.884;2023-06-26T03:34:02;14.30;;;8.67;;
56136;SDS011;42008;52.934;5.884;2023-06-26T03:36:28;17.77;;;9.23;;
56136;SDS011;42008;52.934;5.884;2023-06-26T03:38:53;19.57;;;9.23;;
56136;SDS011;42008;52.934;5.884;2023-06-26T03:41:22;20.30;;;10.00;;
56136;SDS011;42008;52.934;5.884;2023-06-26T03:43:48;18.27;;;9.67;;
56136;SDS011;42008;52.934;5.884;2023-06-26T03:46:14;22.07;;;9.63;;
56136;SDS011;42008;52.934;5.884;2023-06-26T03:48:39;19.53;;;9.67;;
56136;SDS011;42008;52.934;5.884;2023-06-26T03:51:05;19.50;;;9.73;;
56136;SDS011;42008;52.934;5.884;2023-06-26T03:53:32;21.07;;;10.03;;
56136;SDS011;42008;52.934;5.884;2023-06-26T03:55:57;20.47;;;10.60;;
56136;SDS011;42008;52.934;5.884;2023-06-26T03:58:23;27.07;;;10.50;;
56136;SDS011;42008;52.934;5.884;2023-06-26T04:00:50;16.33;;;9.77;;
56136;SDS011;42008;52.934;5.884;2023-06-26T04:03:15;23.20;;;11.27;;
56136;SDS011;42008;52.934;5.884;2023-06-26T04:05:41;23.20;;;10.87;;
56136;SDS011;42008;52.934;5.884;2023-06-26T04:08:07;21.30;;;10.90;;
56136;SDS011;42008;52.934;5.884;2023-06-26T04:10:33;24.07;;;11.77;;
56136;SDS011;42008;52.934;5.884;2023-06-26T04:12:58;22.30;;;11.63;;
56136;SDS011;42008;52.934;5.884;2023-06-26T04:15:24;23.97;;;11.90;;
56136;SDS011;42008;52.934;5.884;2023-06-26T04:17:50;25.50;;;11.20;;
56136;SDS011;42008;52.934;5.884;2023-06-26T04:20:15;25.63;;;11.77;;
56136;SDS011;42008;52.934;5.884;2023-06-26T04:22:41;22.00;;;11.30;;
56136;SDS011;42008;52.934;5.884;2023-06-26T04:25:07;21.70;;;11.13;;
56136;SDS011;42008;52.934;5.884;2023-06-26T04:27:32;20.40;;;10.50;;
56136;SDS011;42008;52.934;5.884;2023-06-26T04:29:58;19.50;;;9.80;;
56136;SDS011;42008;52.934;5.884;2023-06-26T04:32:24;21.97;;;11.20;;
56136;SDS011;42008;52.934;5.884;2023-06-26T04:34:49;17.53;;;9.70;;
56136;SDS011;42008;52.934;5.884;2023-06-26T04:37:15;16.87;;;8.50;;
56136;SDS011;42008;52.934;5.884;2023-06-26T04:39:42;14.90;;;7.50;;
56136;SDS011;42008;52.934;5.884;2023-06-26T04:42:07;24.87;;;7.23;;
56136;SDS011;42008;52.934;5.884;2023-06-26T04:44:34;19.30;;;7.00;;
56136;SDS011;42008;52.934;5.884;2023-06-26T04:47:00;15.53;;;6.47;;
56136;SDS011;42008;52.934;5.884;2023-06-26T04:49:25;23.17;;;7.03;;
56136;SDS011;42008;52.934;5.884;2023-06-26T04:51:52;23.80;;;7.43;;
56136;SDS011;42008;52.934;5.884;2023-06-26T04:54:19;16.50;;;6.60;;
56136;SDS011;42008;52.934;5.884;2023-06-26T04:56:44;14.07;;;6.63;;
56136;SDS011;42008;52.934;5.884;2023-06-26T04:59:12;12.30;;;5.77;;
56136;SDS011;42008;52.934;5.884;2023-06-26T05:01:38;9.13;;;5.37;;
56136;SDS011;42008;52.934;5.884;2023-06-26T05:04:05;13.63;;;5.90;;
56136;SDS011;42008;52.934;5.884;2023-06-26T05:06:31;11.90;;;4.67;;
56136;SDS011;42008;52.934;5.884;2023-06-26T05:08:56;13.37;;;4.50;;
56136;SDS011;42008;52.934;5.884;2023-06-26T05:11:22;10.90;;;4.07;;
56136;SDS011;42008;52.934;5.884;2023-06-26T05:13:48;11.07;;;3.63;;
56136;SDS011;42008;52.934;5.884;2023-06-26T05:16:14;12.40;;;4.27;;
56136;SDS011;42008;52.934;5.884;2023-06-26T05:18:40;13.17;;;4.00;;
56136;SDS011;42008;52.934;5.884;2023-06-26T05:21:05;11.40;;;4.40;;
56136;SDS011;42008;52.934;5.884;2023-06-26T05:23:32;9.47;;;4.03;;
56136;SDS011;42008;52.934;5.884;2023-06-26T05:25:59;11.33;;;3.70;;
56136;SDS011;42008;52.934;5.884;2023-06-26T05:28:28;11.93;;;3.90;;
56136;SDS011;42008;52.934;5.884;2023-06-26T05:30:56;11.77;;;3.87;;
56136;SDS011;42008;52.934;5.884;2023-06-26T05:33:23;12.07;;;3.30;;
56136;SDS011;42008;52.934;5.884;2023-06-26T05:35:51;16.27;;;3.70;;
56136;SDS011;42008;52.934;5.884;2023-06-26T05:38:18;12.87;;;3.63;;
56136;SDS011;42008;52.934;5.884;2023-06-26T05:40:44;9.00;;;3.27;;
56136;SDS011;42008;52.934;5.884;2023-06-26T05:43:10;12.57;;;3.27;;
56136;SDS011;42008;52.934;5.884;2023-06-26T05:45:36;8.17;;;3.07;;
56136;SDS011;42008;52.934;5.884;2023-06-26T05:48:02;13.03;;;3.70;;
56136;SDS011;42008;52.934;5.884;2023-06-26T05:50:28;8.97;;;3.33;;
56136;SDS011;42008;52.934;5.884;2023-06-26T05:52:54;10.67;;;3.30;;
56136;SDS011;42008;52.934;5.884;2023-06-26T05:55:20;13.23;;;3.30;;
56136;SDS011;42008;52.934;5.884;2023-06-26T05:57:46;10.37;;;3.03;;
56136;SDS011;42008;52.934;5.884;2023-06-26T06:00:12;11.27;;;3.07;;
56136;SDS011;42008;52.934;5.884;2023-06-26T06:02:39;9.53;;;3.10;;
56136;SDS011;42008;52.934;5.884;2023-06-26T06:05:06;10.30;;;2.90;;
56136;SDS011;42008;52.934;5.884;2023-06-26T06:07:32;7.53;;;2.80;;
56136;SDS011;42008;52.934;5.884;2023-06-26T06:09:59;9.00;;;3.53;;
56136;SDS011;42008;52.934;5.884;2023-06-26T06:12:24;7.43;;;3.07;;
56136;SDS011;42008;52.934;5.884;2023-06-26T06:14:51;7.47;;;2.57;;
56136;SDS011;42008;52.934;5.884;2023-06-26T06:17:17;10.60;;;3.07;;
56136;SDS011;42008;52.934;5.884;2023-06-26T06:19:42;5.60;;;2.70;;
56136;SDS011;42008;52.934;5.884;2023-06-26T06:22:08;6.93;;;2.57;;
56136;SDS011;42008;52.934;5.884;2023-06-26T06:24:34;6.77;;;2.80;;
56136;SDS011;42008;52.934;5.884;2023-06-26T06:26:59;7.20;;;2.47;;
56136;SDS011;42008;52.934;5.884;2023-06-26T06:29:25;8.90;;;2.67;;
56136;SDS011;42008;52.934;5.884;2023-06-26T06:31:50;8.63;;;2.40;;
56136;SDS011;42008;52.934;5.884;2023-06-26T06:34:16;6.17;;;2.47;;
56136;SDS011;42008;52.934;5.884;2023-06-26T06:36:42;7.97;;;2.20;;
56136;SDS011;42008;52.934;5.884;2023-06-26T06:39:07;9.70;;;2.40;;
56136;SDS011;42008;52.934;5.884;2023-06-26T06:41:33;7.33;;;2.23;;
56136;SDS011;42008;52.934;5.884;2023-06-26T06:43:59;8.03;;;2.20;;
56136;SDS011;42008;52.934;5.884;2023-06-26T06:46:24;5.50;;;2.00;;
56136;SDS011;42008;52.934;5.884;2023-06-26T06:48:52;9.63;;;2.23;;
56136;SDS011;42008;52.934;5.884;2023-06-26T06:51:18;9.60;;;2.40;;
56136;SDS011;42008;52.934;5.884;2023-06-26T06:53:43;5.83;;;1.90;;
56136;SDS011;42008;52.934;5.884;2023-06-26T06:56:09;4.93;;;1.70;;
56136;SDS011;42008;52.934;5.884;2023-06-26T06:58:34;8.90;;;2.37;;
56136;SDS011;42008;52.934;5.884;2023-06-26T07:01:00;6.73;;;2.50;;
56136;SDS011;42008;52.934;5.884;2023-06-26T07:03:27;11.10;;;2.67;;
56136;SDS011;42008;52.934;5.884;2023-06-26T07:05:53;6.93;;;2.20;;
56136;SDS011;42008;52.934;5.884;2023-06-26T07:08:20;5.87;;;2.40;;
56136;SDS011;42008;52.934;5.884;2023-06-26T07:10:45;5.90;;;2.50;;
56136;SDS011;42008;52.934;5.884;2023-06-26T07:13:11;6.53;;;2.60;;
56136;SDS011;42008;52.934;5.884;2023-06-26T07:15:36;7.50;;;2.10;;
56136;SDS011;42008;52.934;5.884;2023-06-26T07:18:02;4.53;;;2.20;;
56136;SDS011;42008;52.934;5.884;2023-06-26T07:20:27;8.27;;;2.70;;
56136;SDS011;42008;52.934;5.884;2023-06-26T07:22:53;9.10;;;2.20;;
56136;SDS011;42008;52.934;5.884;2023-06-26T07:25:19;7.50;;;2.60;;
56136;SDS011;42008;52.934;5.884;2023-06-26T07:27:44;7.33;;;2.40;;
56136;SDS011;42008;52.934;5.884;2023-06-26T07:30:10;9.97;;;2.40;;
56136;SDS011;42008;52.934;5.884;2023-06-26T07:32:36;6.33;;;2.00;;
56136;SDS011;42008;52.934;5.884;2023-06-26T07:35:02;6.30;;;2.13;;
56136;SDS011;42008;52.934;5.884;2023-06-26T07:37:28;8.50;;;3.07;;
56136;SDS011;42008;52.934;5.884;2023-06-26T07:39:54;9.03;;;2.60;;
56136;SDS011;42008;52.934;5.884;2023-06-26T07:42:19;8.37;;;2.40;;
56136;SDS011;42008;52.934;5.884;2023-06-26T07:44:45;7.60;;;2.20;;
56136;SDS011;42008;52.934;5.884;2023-06-26T07:47:11;6.07;;;2.40;;
56136;SDS011;42008;52.934;5.884;2023-06-26T07:49:36;6.40;;;2.40;;
56136;SDS011;42008;52.934;5.884;2023-06-26T07:52:04;5.00;;;2.30;;
56136;SDS011;42008;52.934;5.884;2023-06-26T07:54:30;7.80;;;2.50;;
56136;SDS011;42008;52.934;5.884;2023-06-26T07:56:56;7.37;;;2.40;;
56136;SDS011;42008;52.934;5.884;2023-06-26T07:59:22;8.20;;;2.50;;
56136;SDS011;42008;52.934;5.884;2023-06-26T08:01:49;9.57;;;3.60;;
56136;SDS011;42008;52.934;5.884;2023-06-26T08:04:15;8.85;;;3.05;;
56136;SDS011;42008;52.934;5.884;2023-06-26T08:06:43;10.35;;;3.10;;
56136;SDS011;42008;52.934;5.884;2023-06-26T08:09:08;9.70;;;3.17;;
56136;SDS011;42008;52.934;5.884;2023-06-26T08:11:34;8.03;;;3.00;;
56136;SDS011;42008;52.934;5.884;2023-06-26T08:13:59;10.13;;;3.33;;
56136;SDS011;42008;52.934;5.884;2023-06-26T08:16:25;8.87;;;2.60;;
56136;SDS011;42008;52.934;5.884;2023-06-26T08:18:51;7.27;;;3.03;;
56136;SDS011;42008;52.934;5.884;2023-06-26T08:21:16;8.87;;;3.03;;
56136;SDS011;42008;52.934;5.884;2023-06-26T08:23:42;6.10;;;2.57;;
56136;SDS011;42008;52.934;5.884;2023-06-26T08:26:08;5.80;;;2.80;;
56136;SDS011;42008;52.934;5.884;2023-06-26T08:28:33;10.00;;;2.93;;
56136;SDS011;42008;52.934;5.884;2023-06-26T08:30:59;6.97;;;3.00;;
56136;SDS011;42008;52.934;5.884;2023-06-26T08:33:25;6.47;;;2.67;;
56136;SDS011;42008;52.934;5.884;2023-06-26T08:35:51;8.77;;;2.70;;
56136;SDS011;42008;52.934;5.884;2023-06-26T08:38:16;7.55;;;2.67;;
56136;SDS011;42008;52.934;5.884;2023-06-26T08:40:42;9.77;;;3.03;;
56136;SDS011;42008;52.934;5.884;2023-06-26T08:43:08;6.00;;;2.63;;
56136;SDS011;42008;52.934;5.884;2023-06-26T08:45:33;8.20;;;3.00;;
56136;SDS011;42008;52.934;5.884;2023-06-26T08:48:00;5.77;;;2.37;;
56136;SDS011;42008;52.934;5.884;2023-06-26T08:50:30;7.37;;;3.07;;
56136;SDS011;42008;52.934;5.884;2023-06-26T08:55:33;11.17;;;3.33;;
56136;SDS011;42008;52.934;5.884;2023-06-26T08:58:02;7.27;;;3.07;;
56136;SDS011;42008;52.934;5.884;2023-06-26T09:00:28;6.97;;;3.20;;
56136;SDS011;42008;52.934;5.884;2023-06-26T09:02:55;7.60;;;3.10;;
56136;SDS011;42008;52.934;5.884;2023-06-26T09:05:21;8.27;;;3.67;;
56136;SDS011;42008;52.934;5.884;2023-06-26T09:07:47;8.47;;;3.40;;
56136;SDS011;42008;52.934;5.884;2023-06-26T09:10:12;6.77;;;3.30;;
56136;SDS011;42008;52.934;5.884;2023-06-26T09:12:38;8.33;;;3.70;;
56136;SDS011;42008;52.934;5.884;2023-06-26T09:15:04;13.30;;;4.17;;
56136;SDS011;42008;52.934;5.884;2023-06-26T09:17:33;7.73;;;3.33;;
56136;SDS011;42008;52.934;5.884;2023-06-26T09:20:03;7.47;;;3.50;;
56136;SDS011;42008;52.934;5.884;2023-06-26T09:22:29;10.10;;;3.40;;
56136;SDS011;42008;52.934;5.884;2023-06-26T09:24:58;7.90;;;3.00;;
56136;SDS011;42008;52.934;5.884;2023-06-26T09:27:24;8.50;;;3.27;;
56136;SDS011;42008;52.934;5.884;2023-06-26T09:29:50;6.90;;;2.67;;
56136;SDS011;42008;52.934;5.884;2023-06-26T09:32:16;5.77;;;2.77;;
56136;SDS011;42008;52.934;5.884;2023-06-26T09:34:42;7.73;;;3.27;;
56136;SDS011;42008;52.934;5.884;2023-06-26T09:37:11;10.17;;;3.23;;
56136;SDS011;42008;52.934;5.884;2023-06-26T09:39:38;5.57;;;2.73;;
56136;SDS011;42008;52.934;5.884;2023-06-26T09:42:04;7.63;;;2.83;;
56136;SDS011;42008;52.934;5.884;2023-06-26T09:44:32;8.83;;;2.87;;
56136;SDS011;42008;52.934;5.884;2023-06-26T09:46:58;8.83;;;3.47;;
56136;SDS011;42008;52.934;5.884;2023-06-26T09:49:24;8.13;;;3.00;;
56136;SDS011;42008;52.934;5.884;2023-06-26T09:51:50;8.13;;;3.47;;
56136;SDS011;42008;52.934;5.884;2023-06-26T09:54:16;7.97;;;3.00;;
56136;SDS011;42008;52.934;5.884;2023-06-26T09:56:44;11.30;;;3.40;;
56136;SDS011;42008;52.934;5.884;2023-06-26T09:59:10;9.87;;;3.87;;
56136;SDS011;42008;52.934;5.884;2023-06-26T10:01:45;9.07;;;3.50;;
56136;SDS011;42008;52.934;5.884;2023-06-26T10:04:11;8.80;;;3.10;;
56136;SDS011;42008;52.934;5.884;2023-06-26T10:06:38;10.17;;;3.27;;
56136;SDS011;42008;52.934;5.884;2023-06-26T10:09:10;8.77;;;3.10;;
56136;SDS011;42008;52.934;5.884;2023-06-26T10:11:55;8.90;;;3.10;;
56136;SDS011;42008;52.934;5.884;2023-06-26T10:14:27;9.67;;;3.60;;
56136;SDS011;42008;52.934;5.884;2023-06-26T10:17:03;9.50;;;3.77;;
56136;SDS011;42008;52.934;5.884;2023-06-26T10:19:31;9.53;;;3.37;;
56136;SDS011;42008;52.934;5.884;2023-06-26T10:21:58;11.33;;;3.27;;
56136;SDS011;42008;52.934;5.884;2023-06-26T10:24:26;8.03;;;3.33;;
56136;SDS011;42008;52.934;5.884;2023-06-26T10:26:58;11.87;;;3.00;;
56136;SDS011;42008;52.934;5.884;2023-06-26T10:29:27;11.20;;;2.93;;
56136;SDS011;42008;52.934;5.884;2023-06-26T10:31:54;12.23;;;3.03;;
56136;SDS011;42008;52.934;5.884;2023-06-26T10:34:22;9.40;;;2.97;;
56136;SDS011;42008;52.934;5.884;2023-06-26T10:36:58;7.47;;;2.63;;
56136;SDS011;42008;52.934;5.884;2023-06-26T10:39:24;9.93;;;2.80;;
56136;SDS011;42008;52.934;5.884;2023-06-26T10:41:50;6.33;;;2.10;;
56136;SDS011;42008;52.934;5.884;2023-06-26T10:44:20;9.80;;;2.28;;
56136;SDS011;42008;52.934;5.884;2023-06-26T10:46:53;8.60;;;2.13;;
56136;SDS011;42008;52.934;5.884;2023-06-26T10:49:21;10.18;;;2.28;;
56136;SDS011;42008;52.934;5.884;2023-06-26T10:51:50;6.45;;;2.05;;
56136;SDS011;42008;52.934;5.884;2023-06-26T10:54:17;10.05;;;2.45;;
56136;SDS011;42008;52.934;5.884;2023-06-26T10:56:47;10.13;;;2.70;;
56136;SDS011;42008;52.934;5.884;2023-06-26T10:59:21;10.20;;;2.30;;
56136;SDS011;42008;52.934;5.884;2023-06-26T11:01:58;9.52;;;2.83;;
56136;SDS011;42008;52.934;5.884;2023-06-26T11:04:43;12.82;;;2.53;;
56136;SDS011;42008;52.934;5.884;2023-06-26T11:09:56;11.05;;;2.03;;
56136;SDS011;42008;52.934;5.884;2023-06-26T11:12:42;9.63;;;2.15;;
56136;SDS011;42008;52.934;5.884;2023-06-26T11:17:44;8.20;;;2.08;;
56136;SDS011;42008;52.934;5.884;2023-06-26T11:20:11;9.30;;;2.70;;
56136;SDS011;42008;52.934;5.884;2023-06-26T11:22:39;8.32;;;2.35;;
56136;SDS011;42008;52.934;5.884;2023-06-26T11:25:06;7.93;;;2.30;;
56136;SDS011;42008;52.934;5.884;2023-06-26T11:30:06;8.10;;;2.33;;
56136;SDS011;42008;52.934;5.884;2023-06-26T11:32:33;12.67;;;2.50;;
56136;SDS011;42008;52.934;5.884;2023-06-26T11:35:01;5.53;;;1.65;;
56136;SDS011;42008;52.934;5.884;2023-06-26T11:37:27;5.93;;;2.10;;
56136;SDS011;42008;52.934;5.884;2023-06-26T11:39:52;10.50;;;2.30;;
56136;SDS011;42008;52.934;5.884;2023-06-26T11:42:18;8.70;;;1.98;;
56136;SDS011;42008;52.934;5.884;2023-06-26T11:44:45;7.60;;;1.92;;
56136;SDS011;42008;52.934;5.884;2023-06-26T11:47:18;5.60;;;1.80;;
56136;SDS011;42008;52.934;5.884;2023-06-26T11:49:46;7.30;;;2.17;;
56136;SDS011;42008;52.934;5.884;2023-06-26T11:52:13;11.02;;;2.20;;
56136;SDS011;42008;52.934;5.884;2023-06-26T11:54:40;5.90;;;1.95;;
56136;SDS011;42008;52.934;5.884;2023-06-26T11:57:06;9.07;;;2.65;;
56136;SDS011;42008;52.934;5.884;2023-06-26T11:59:39;7.65;;;1.95;;
56136;SDS011;42008;52.934;5.884;2023-06-26T12:02:13;9.93;;;1.98;;
56136;SDS011;42008;52.934;5.884;2023-06-26T12:04:43;9.63;;;2.38;;
56136;SDS011;42008;52.934;5.884;2023-06-26T12:07:09;6.60;;;2.05;;
56136;SDS011;42008;52.934;5.884;2023-06-26T12:09:42;8.07;;;2.20;;
56136;SDS011;42008;52.934;5.884;2023-06-26T12:12:10;10.80;;;2.30;;
56136;SDS011;42008;52.934;5.884;2023-06-26T12:14:37;9.85;;;2.17;;
56136;SDS011;42008;52.934;5.884;2023-06-26T12:17:08;13.13;;;2.58;;
56136;SDS011;42008;52.934;5.884;2023-06-26T12:19:39;9.02;;;2.40;;
56136;SDS011;42008;52.934;5.884;2023-06-26T12:22:09;10.90;;;2.53;;
56136;SDS011;42008;52.934;5.884;2023-06-26T12:24:36;11.77;;;2.28;;
56136;SDS011;42008;52.934;5.884;2023-06-26T12:27:07;6.00;;;1.98;;
56136;SDS011;42008;52.934;5.884;2023-06-26T12:29:37;6.85;;;2.30;;
56136;SDS011;42008;52.934;5.884;2023-06-26T12:32:07;7.10;;;2.25;;
56136;SDS011;42008;52.934;5.884;2023-06-26T12:34:37;14.18;;;2.60;;
56136;SDS011;42008;52.934;5.884;2023-06-26T12:37:10;11.40;;;2.90;;
56136;SDS011;42008;52.934;5.884;2023-06-26T12:39:52;10.95;;;2.40;;
56136;SDS011;42008;52.934;5.884;2023-06-26T12:42:19;11.90;;;2.53;;
56136;SDS011;42008;52.934;5.884;2023-06-26T12:44:47;8.38;;;2.38;;
56136;SDS011;42008;52.934;5.884;2023-06-26T12:47:13;12.77;;;2.60;;
56136;SDS011;42008;52.934;5.884;2023-06-26T12:49:41;8.43;;;2.10;;
56136;SDS011;42008;52.934;5.884;2023-06-26T12:52:08;8.27;;;2.37;;
56136;SDS011;42008;52.934;5.884;2023-06-26T12:54:35;12.80;;;2.77;;
56136;SDS011;42008;52.934;5.884;2023-06-26T12:57:01;13.90;;;2.70;;
56136;SDS011;42008;52.934;5.884;2023-06-26T12:59:29;9.77;;;2.23;;
56136;SDS011;42008;52.934;5.884;2023-06-26T13:01:55;9.80;;;2.50;;
56136;SDS011;42008;52.934;5.884;2023-06-26T13:04:21;9.23;;;2.58;;
56136;SDS011;42008;52.934;5.884;2023-06-26T13:06:46;11.57;;;2.63;;
56136;SDS011;42008;52.934;5.884;2023-06-26T13:09:12;10.35;;;2.65;;
56136;SDS011;42008;52.934;5.884;2023-06-26T13:11:38;10.80;;;3.00;;
56136;SDS011;42008;52.934;5.884;2023-06-26T13:14:04;10.23;;;2.60;;
56136;SDS011;42008;52.934;5.884;2023-06-26T13:16:29;9.47;;;2.50;;
56136;SDS011;42008;52.934;5.884;2023-06-26T13:18:55;8.55;;;2.65;;
56136;SDS011;42008;52.934;5.884;2023-06-26T13:21:23;11.23;;;3.17;;
56136;SDS011;42008;52.934;5.884;2023-06-26T13:23:48;9.75;;;2.55;;
56136;SDS011;42008;52.934;5.884;2023-06-26T13:26:14;7.28;;;2.47;;
56136;SDS011;42008;52.934;5.884;2023-06-26T13:28:40;8.30;;;2.30;;
56136;SDS011;42008;52.934;5.884;2023-06-26T13:31:05;12.43;;;2.97;;
56136;SDS011;42008;52.934;5.884;2023-06-26T13:33:31;13.38;;;2.50;;
56136;SDS011;42008;52.934;5.884;2023-06-26T13:35:57;7.75;;;1.98;;
56136;SDS011;42008;52.934;5.884;2023-06-26T13:38:24;13.75;;;2.70;;
56136;SDS011;42008;52.934;5.884;2023-06-26T13:40:54;10.27;;;2.65;;
56136;SDS011;42008;52.934;5.884;2023-06-26T13:43:22;12.32;;;2.50;;
56136;SDS011;42008;52.934;5.884;2023-06-26T13:45:48;11.98;;;2.65;;
56136;SDS011;42008;52.934;5.884;2023-06-26T13:48:14;8.35;;;2.63;;
56136;SDS011;42008;52.934;5.884;2023-06-26T13:50:40;9.52;;;2.67;;
56136;SDS011;42008;52.934;5.884;2023-06-26T13:53:06;7.47;;;2.33;;
56136;SDS011;42008;52.934;5.884;2023-06-26T13:55:32;7.90;;;2.13;;
56136;SDS011;42008;52.934;5.884;2023-06-26T13:57:59;9.73;;;2.40;;
56136;SDS011;42008;52.934;5.884;2023-06-26T14:00:24;9.10;;;2.30;;
56136;SDS011;42008;52.934;5.884;2023-06-26T14:02:50;9.30;;;2.22;;
56136;SDS011;42008;52.934;5.884;2023-06-26T14:05:16;9.90;;;2.47;;
56136;SDS011;42008;52.934;5.884;2023-06-26T14:07:46;10.25;;;2.35;;
56136;SDS011;42008;52.934;5.884;2023-06-26T14:10:11;8.38;;;2.15;;
56136;SDS011;42008;52.934;5.884;2023-06-26T14:12:37;8.80;;;2.03;;
56136;SDS011;42008;52.934;5.884;2023-06-26T14:15:03;9.20;;;2.33;;
56136;SDS011;42008;52.934;5.884;2023-06-26T14:17:29;8.73;;;2.72;;
56136;SDS011;42008;52.934;5.884;2023-06-26T14:19:55;10.68;;;2.40;;
56136;SDS011;42008;52.934;5.884;2023-06-26T14:22:20;10.52;;;2.60;;
56136;SDS011;42008;52.934;5.884;2023-06-26T14:24:46;6.78;;;2.25;;
56136;SDS011;42008;52.934;5.884;2023-06-26T14:27:12;7.93;;;2.20;;
56136;SDS011;42008;52.934;5.884;2023-06-26T14:29:38;10.60;;;3.05;;
56136;SDS011;42008;52.934;5.884;2023-06-26T14:32:04;10.85;;;2.40;;
56136;SDS011;42008;52.934;5.884;2023-06-26T14:34:30;9.68;;;2.40;;
56136;SDS011;42008;52.934;5.884;2023-06-26T14:36:56;8.15;;;2.22;;
56136;SDS011;42008;52.934;5.884;2023-06-26T14:39:21;9.50;;;2.17;;
56136;SDS011;42008;52.934;5.884;2023-06-26T14:41:47;9.63;;;2.40;;
56136;SDS011;42008;52.934;5.884;2023-06-26T14:44:14;6.72;;;2.15;;
56136;SDS011;42008;52.934;5.884;2023-06-26T14:46:40;10.85;;;2.47;;
56136;SDS011;42008;52.934;5.884;2023-06-26T14:49:05;11.27;;;2.53;;
56136;SDS011;42008;52.934;5.884;2023-06-26T14:51:31;9.18;;;2.35;;
56136;SDS011;42008;52.934;5.884;2023-06-26T14:53:56;10.32;;;2.80;;